Time;durP1;ratioP1;P1;durP2;ratioP2;P2;SDS_P1;SDS_P2;PMS_P1;PMS_P2;Temp;Humidity;BMP_temperature;BMP_pressure;BME280_temperature;BME280_humidity;BME280_pressure;Samples;Min_cycle;Max_cycle;Signal;HPM_P1;HPM_P2
2023/08/20 00:02:25;;;;;;;17.40;13.10;;;;;;;19.44;100.00;100195.75;109096;1257;58089;-61
2023/08/20 00:05:13;;;;;;;16.70;12.90;;;;;;;19.41;100.00;100194.60;109068;1260;60106;-60
2023/08/20 00:08:00;;;;;;;17.20;13.20;;;;;;;19.40;100.00;100194.91;109025;1257;74096;-61
2023/08/20 00:10:46;;;;;;;16.40;13.20;;;;;;;19.40;100.00;100197.11;109127;1257;68735;-59
2023/08/20 00:13:32;;;;;;;16.40;13.10;;;;;;;19.37;100.00;100195.73;109131;1257;72796;-60
2023/08/20 00:16:19;;;;;;;15.90;12.70;;;;;;;19.34;100.00;100196.85;109068;1257;59325;-64
2023/08/20 00:19:07;;;;;;;16.00;12.30;;;;;;;19.27;100.00;100194.95;109046;1257;60149;-62
2023/08/20 00:21:53;;;;;;;16.70;12.50;;;;;;;19.22;100.00;100199.99;109052;1257;71620;-60
2023/08/20 00:24:40;;;;;;;14.60;11.50;;;;;;;19.18;100.00;100196.29;109143;1257;67845;-61
2023/08/20 00:27:26;;;;;;;14.40;11.30;;;;;;;19.15;100.00;100195.55;109092;1257;72437;-61
2023/08/20 00:30:14;;;;;;;16.10;11.10;;;;;;;19.14;100.00;100194.81;108996;1257;60644;-60
2023/08/20 00:33:00;;;;;;;15.40;10.50;;;;;;;19.13;100.00;100190.16;109131;1257;60315;-61
2023/08/20 00:35:47;;;;;;;15.00;11.70;;;;;;;19.12;100.00;100185.96;109125;1257;72940;-61
2023/08/20 00:38:33;;;;;;;15.00;11.90;;;;;;;19.10;100.00;100184.98;108979;1257;66598;-60
2023/08/20 00:41:21;;;;;;;16.00;11.30;;;;;;;19.07;100.00;100185.13;109006;1258;72649;-60
2023/08/20 00:44:07;;;;;;;14.30;10.80;;;;;;;19.05;100.00;100179.77;109022;1260;60644;-60
2023/08/20 00:46:53;;;;;;;17.00;12.10;;;;;;;19.04;100.00;100182.77;109059;1259;61012;-60
2023/08/20 00:49:40;;;;;;;16.70;12.00;;;;;;;19.03;100.00;100185.77;109011;1260;72813;-62
2023/08/20 00:52:27;;;;;;;15.60;11.80;;;;;;;19.03;100.00;100184.33;109010;1258;67657;-60
2023/08/20 00:55:13;;;;;;;15.40;11.30;;;;;;;19.03;100.00;100187.20;108978;1260;71197;-60
2023/08/20 00:58:00;;;;;;;15.40;11.60;;;;;;;19.02;100.00;100189.11;109034;1257;58300;-60
2023/08/20 01:00:46;;;;;;;17.60;11.60;;;;;;;19.01;100.00;100188.44;109052;1257;60181;-61
2023/08/20 01:03:33;;;;;;;14.90;10.90;;;;;;;19.01;100.00;100191.03;109043;1257;74189;-60
2023/08/20 01:07:00;;;;;;;16.20;11.50;;;;;;;19.00;100.00;100183.79;109160;1257;67923;-60
2023/08/20 01:10:04;;;;;;;16.30;12.50;;;;;;;18.97;100.00;100180.90;109067;1257;73898;-59
2023/08/20 01:12:51;;;;;;;20.10;14.10;;;;;;;18.94;100.00;100177.91;109047;1257;59420;-61
2023/08/20 01:15:37;;;;;;;20.20;14.50;;;;;;;18.93;100.00;100180.60;109048;1257;59132;-60
2023/08/20 01:18:25;;;;;;;22.20;14.90;;;;;;;18.90;100.00;100180.50;109142;1257;73006;-61
2023/08/20 01:21:27;;;;;;;19.30;14.50;;;;;;;18.88;100.00;100183.77;109081;1257;68838;-60
2023/08/20 01:24:46;;;;;;;18.90;14.00;;;;;;;18.86;100.00;100183.95;109046;1257;71290;-61
2023/08/20 01:27:52;;;;;;;17.50;13.70;;;;;;;18.84;100.00;100186.20;109049;1257;59435;-59
2023/08/20 01:30:38;;;;;;;18.10;13.20;;;;;;;18.83;100.00;100187.04;109022;1258;59108;-60
2023/08/20 01:33:25;;;;;;;17.80;14.10;;;;;;;18.81;100.00;100185.47;109084;1257;71961;-62
2023/08/20 01:36:11;;;;;;;20.10;14.70;;;;;;;18.81;100.00;100186.76;109076;1258;67732;-59
2023/08/20 01:38:57;;;;;;;19.20;14.40;;;;;;;18.80;100.00;100183.22;109000;1259;73622;-59
2023/08/20 01:41:44;;;;;;;20.10;13.70;;;;;;;18.78;100.00;100177.86;108993;1261;59295;-60
2023/08/20 01:44:30;;;;;;;17.40;13.40;;;;;;;18.83;100.00;100180.08;109049;1258;60742;-59
2023/08/20 01:47:16;;;;;;;21.20;10.30;;;;;;;18.82;100.00;100185.14;109015;1259;74319;-60
2023/08/20 01:50:04;;;;;;;18.90;14.30;;;;;;;18.84;100.00;100185.67;109023;1257;67865;-60
2023/08/20 01:52:53;;;;;;;18.40;13.20;;;;;;;18.84;100.00;100187.59;109113;1257;72847;-61
2023/08/20 01:55:39;;;;;;;17.90;13.60;;;;;;;18.85;100.00;100189.14;109094;1257;60534;-60
2023/08/20 01:58:25;;;;;;;18.70;13.30;;;;;;;18.84;100.00;100189.79;109053;1257;59243;-61
2023/08/20 02:01:12;;;;;;;16.30;13.10;;;;;;;18.84;100.00;100190.89;109068;1257;73856;-61
2023/08/20 02:03:58;;;;;;;19.10;13.00;;;;;;;18.83;100.00;100190.98;109151;1257;67864;-60
2023/08/20 02:06:45;;;;;;;16.40;12.60;;;;;;;18.82;100.00;100188.70;108965;1257;72383;-61
2023/08/20 02:09:33;;;;;;;17.10;13.00;;;;;;;18.83;100.00;100186.54;109030;1258;58519;-60
2023/08/20 02:12:19;;;;;;;17.50;13.10;;;;;;;18.81;100.00;100192.11;109088;1258;60191;-61
2023/08/20 02:15:06;;;;;;;16.90;12.30;;;;;;;18.77;100.00;100195.11;109078;1257;72733;-61
2023/08/20 02:17:56;;;;;;;16.70;12.00;;;;;;;18.74;100.00;100190.90;109097;1257;68916;-61
2023/08/20 02:20:43;;;;;;;15.70;11.40;;;;;;;18.74;100.00;100188.77;109084;1257;71362;-61
2023/08/20 02:23:30;;;;;;;16.80;11.90;;;;;;;18.74;100.00;100191.67;109012;1257;59372;-60
2023/08/20 02:26:16;;;;;;;15.70;11.60;;;;;;;18.73;100.00;100191.54;109170;1257;61357;-60
2023/08/20 02:29:03;;;;;;;15.80;11.40;;;;;;;18.68;100.00;100180.93;109084;1257;74120;-60
2023/08/20 02:31:49;;;;;;;15.60;12.20;;;;;;;18.69;100.00;100183.89;108995;1257;67638;-61
2023/08/20 02:34:36;;;;;;;16.30;11.90;;;;;;;18.67;100.00;100182.15;109016;1257;73599;-59
2023/08/20 02:37:22;;;;;;;16.40;11.80;;;;;;;18.66;100.00;100180.42;109100;1257;59625;-59
2023/08/20 02:40:11;;;;;;;15.80;11.90;;;;;;;18.65;100.00;100178.91;109083;1257;60086;-60
2023/08/20 02:42:58;;;;;;;15.50;11.70;;;;;;;18.64;100.00;100178.88;109067;1257;74013;-59
2023/08/20 02:45:44;;;;;;;15.60;11.10;;;;;;;18.62;100.00;100179.15;109125;1257;67662;-59
2023/08/20 02:48:30;;;;;;;15.90;12.20;;;;;;;18.60;100.00;100178.61;108990;1258;72616;-59
2023/08/20 02:51:16;;;;;;;16.70;12.20;;;;;;;18.59;100.00;100174.98;109008;1258;58718;-61
2023/08/20 02:54:03;;;;;;;16.00;11.80;;;;;;;18.56;100.00;100170.40;109062;1258;60180;-59
2023/08/20 02:56:49;;;;;;;16.20;11.30;;;;;;;18.54;100.00;100169.18;109057;1257;73839;-58
2023/08/20 02:59:36;;;;;;;16.10;11.80;;;;;;;18.52;100.00;100166.89;109001;1258;67709;-58
2023/08/20 03:02:22;;;;;;;15.40;12.20;;;;;;;18.51;100.00;100170.59;108981;1258;73708;-59
2023/08/20 03:05:10;;;;;;;15.30;11.20;;;;;;;18.50;100.00;100172.65;108965;1258;60002;-59
2023/08/20 03:07:56;;;;;;;15.00;11.20;;;;;;;18.49;100.00;100172.11;108982;1258;61104;-59
2023/08/20 03:10:42;;;;;;;14.90;11.60;;;;;;;18.48;100.00;100169.11;109039;1258;73308;-60
2023/08/20 03:13:29;;;;;;;15.00;12.00;;;;;;;18.47;100.00;100165.94;109016;1258;67879;-63
2023/08/20 03:16:15;;;;;;;15.10;11.10;;;;;;;18.47;100.00;100172.79;108924;1260;73545;-59
2023/08/20 03:19:02;;;;;;;17.10;11.40;;;;;;;18.46;100.00;100172.71;109003;1258;59556;-60
2023/08/20 03:21:48;;;;;;;15.40;11.10;;;;;;;18.45;100.00;100177.56;109097;1257;61601;-60
2023/08/20 03:24:35;;;;;;;16.70;11.30;;;;;;;18.41;100.00;100179.59;108952;1259;74023;-60
2023/08/20 03:27:21;;;;;;;15.00;11.20;;;;;;;18.40;100.00;100178.08;109113;1257;68694;-61
2023/08/20 03:30:08;;;;;;;15.30;10.70;;;;;;;18.40;100.00;100177.39;109072;1257;72374;-61
2023/08/20 03:32:55;;;;;;;15.80;11.40;;;;;;;18.39;100.00;100177.99;109014;1259;60462;-62
2023/08/20 03:35:41;;;;;;;16.60;11.70;;;;;;;18.40;100.00;100183.66;109007;1257;58951;-61
2023/08/20 03:38:27;;;;;;;16.00;11.80;;;;;;;18.42;100.00;100180.23;109061;1258;72809;-60
2023/08/20 03:41:14;;;;;;;18.30;11.70;;;;;;;18.42;100.00;100182.85;109031;1258;67431;-60
2023/08/20 03:44:01;;;;;;;15.20;11.80;;;;;;;18.45;100.00;100181.34;108941;1260;72196;-60
2023/08/20 03:46:47;;;;;;;14.30;10.70;;;;;;;18.46;100.00;100185.02;109022;1257;58301;-61
2023/08/20 03:49:34;;;;;;;15.00;10.90;;;;;;;18.46;100.00;100187.64;109113;1257;60116;-61
2023/08/20 03:52:20;;;;;;;15.70;11.50;;;;;;;18.48;100.00;100189.58;109101;1257;74087;-61
2023/08/20 03:55:07;;;;;;;14.80;11.20;;;;;;;18.50;100.00;100193.91;109137;1257;65707;-60
2023/08/20 03:57:53;;;;;;;15.30;11.40;;;;;;;18.52;100.00;100196.25;109103;1257;73634;-62
2023/08/20 04:00:39;;;;;;;15.10;11.30;;;;;;;18.55;100.00;100196.14;109083;1257;60666;-61
2023/08/20 04:03:25;;;;;;;15.40;11.50;;;;;;;18.60;100.00;100199.05;109133;1257;61347;-61
2023/08/20 04:06:12;;;;;;;16.30;11.00;;;;;;;18.65;100.00;100197.65;109110;1257;74160;-62
2023/08/20 04:08:58;;;;;;;16.60;10.80;;;;;;;18.68;100.00;100197.61;109128;1257;66183;-60
2023/08/20 04:11:44;;;;;;;16.90;11.50;;;;;;;18.73;100.00;100199.79;109138;1257;72455;-60
2023/08/20 04:14:30;;;;;;;14.60;10.80;;;;;;;18.77;100.00;100193.98;109099;1257;59665;-61
2023/08/20 04:17:17;;;;;;;15.80;11.20;;;;;;;18.83;100.00;100193.35;109037;1257;61304;-62
2023/08/20 04:20:07;;;;;;;15.90;11.80;;;;;;;18.88;100.00;100199.08;109046;1257;72991;-61
2023/08/20 04:22:53;;;;;;;15.80;12.60;;;;;;;18.94;100.00;100199.10;109019;1257;68907;-60
2023/08/20 04:25:40;;;;;;;18.60;12.00;;;;;;;19.01;100.00;100199.27;109035;1257;72619;-61
2023/08/20 04:28:26;;;;;;;17.60;13.60;;;;;;;19.09;100.00;100197.86;108986;1259;58478;-60
2023/08/20 04:31:13;;;;;;;20.20;13.50;;;;;;;19.15;100.00;100196.77;108980;1259;60235;-61
2023/08/20 04:34:05;;;;;;;18.20;12.60;;;;;;;19.24;100.00;100202.48;108954;1258;73039;-59
2023/08/20 04:37:12;;;;;;;16.10;12.60;;;;;;;19.34;100.00;100206.40;109014;1258;67789;-60
2023/08/20 04:39:59;;;;;;;15.50;12.10;;;;;;;19.43;100.00;100206.65;108947;1258;72761;-59
2023/08/20 04:42:46;;;;;;;14.80;11.30;;;;;;;19.53;100.00;100200.67;108941;1258;60270;-59
2023/08/20 04:45:34;;;;;;;18.30;12.80;;;;;;;19.68;100.00;100202.59;108985;1259;60438;-60
2023/08/20 04:48:20;;;;;;;20.50;13.60;;;;;;;19.80;100.00;100201.20;108783;1262;71794;-60
2023/08/20 04:51:08;;;;;;;16.90;13.00;;;;;;;19.95;100.00;100200.91;108822;1262;68956;-61
2023/08/20 04:53:55;;;;;;;17.10;12.80;;;;;;;20.10;100.00;100205.39;108720;1262;72508;-61
2023/08/20 04:56:41;;;;;;;18.30;12.30;;;;;;;20.25;100.00;100204.89;108798;1262;60490;-60
2023/08/20 04:59:29;;;;;;;16.40;12.90;;;;;;;20.39;100.00;100204.79;108856;1262;61597;-60
2023/08/20 05:02:21;;;;;;;17.50;13.00;;;;;;;20.52;100.00;100202.95;108799;1262;74050;-61
2023/08/20 05:05:14;;;;;;;16.80;12.70;;;;;;;20.66;100.00;100199.96;108832;1262;68702;-60
2023/08/20 05:08:00;;;;;;;15.70;11.70;;;;;;;20.76;99.99;100203.03;108727;1262;73535;-59
2023/08/20 05:10:49;;;;;;;16.20;12.50;;;;;;;20.89;99.59;100205.99;108803;1262;60548;-60
2023/08/20 05:13:35;;;;;;;17.90;12.50;;;;;;;21.05;98.94;100210.77;108810;1262;60237;-60
2023/08/20 05:16:21;;;;;;;16.50;11.00;;;;;;;21.25;98.75;100211.32;108829;1262;71766;-59
2023/08/20 05:19:08;;;;;;;14.90;10.70;;;;;;;21.53;98.06;100214.27;108852;1259;67734;-62
2023/08/20 05:21:58;;;;;;;14.50;10.90;;;;;;;21.85;96.59;100213.94;108913;1260;72420;-60
2023/08/20 05:24:44;;;;;;;13.80;9.70;;;;;;;22.20;95.32;100211.30;108943;1260;57402;-60
2023/08/20 05:27:31;;;;;;;14.50;10.40;;;;;;;22.55;93.84;100210.17;108973;1259;60937;-62
2023/08/20 05:30:18;;;;;;;13.50;9.60;;;;;;;22.80;91.74;100208.48;108890;1258;73857;-65
2023/08/20 05:33:04;;;;;;;12.50;9.40;;;;;;;23.01;91.11;100213.95;108961;1258;67543;-64
2023/08/20 05:35:55;;;;;;;13.30;8.80;;;;;;;23.16;89.76;100214.05;108949;1258;72637;-64
2023/08/20 05:38:44;;;;;;;14.30;8.60;;;;;;;23.32;88.65;100216.92;108938;1258;59390;-63
2023/08/20 05:41:30;;;;;;;14.30;9.00;;;;;;;23.44;88.13;100219.14;109043;1258;61078;-64
2023/08/20 05:44:17;;;;;;;15.10;9.50;;;;;;;23.51;88.11;100218.70;108974;1258;72928;-64
2023/08/20 05:47:05;;;;;;;17.30;10.10;;;;;;;23.56;87.88;100220.95;109006;1258;69058;-63
2023/08/20 05:49:52;;;;;;;14.00;9.50;;;;;;;23.63;87.38;100219.55;109051;1257;72607;-63
2023/08/20 05:52:38;;;;;;;17.10;9.60;;;;;;;23.70;86.61;100220.85;108993;1258;59174;-63
2023/08/20 05:55:25;;;;;;;13.10;9.30;;;;;;;23.79;86.29;100223.58;109050;1258;61678;-64
2023/08/20 05:58:11;;;;;;;13.80;9.20;;;;;;;23.89;86.03;100223.14;108962;1258;71707;-66
2023/08/20 06:00:58;;;;;;;11.30;8.30;;;;;;;23.96;85.79;100223.00;108954;1258;68358;-65
2023/08/20 06:03:44;;;;;;;11.70;9.00;;;;;;;24.05;85.27;100228.26;109017;1258;71405;-65
2023/08/20 06:06:30;;;;;;;13.70;9.60;;;;;;;24.11;84.77;100226.14;108980;1258;58814;-63
2023/08/20 06:09:17;;;;;;;13.80;8.80;;;;;;;24.18;84.63;100227.01;109039;1258;60948;-65
2023/08/20 06:12:03;;;;;;;14.10;9.20;;;;;;;24.26;84.77;100227.05;109005;1258;72754;-64
2023/08/20 06:14:50;;;;;;;14.70;9.00;;;;;;;24.36;84.80;100228.88;109027;1258;67836;-67
2023/08/20 06:17:36;;;;;;;11.80;8.00;;;;;;;24.54;84.74;100232.41;109026;1258;72337;-64
2023/08/20 06:20:23;;;;;;;12.30;8.40;;;;;;;24.71;84.55;100229.51;109002;1258;58141;-64
2023/08/20 06:23:09;;;;;;;12.40;8.60;;;;;;;24.97;83.80;100230.21;109029;1258;60045;-63
2023/08/20 06:25:57;;;;;;;11.70;8.60;;;;;;;25.16;83.19;100229.23;108984;1258;74009;-63
2023/08/20 06:28:43;;;;;;;15.00;9.10;;;;;;;25.35;82.20;100230.77;109001;1258;66106;-67
2023/08/20 06:31:29;;;;;;;13.50;8.80;;;;;;;25.56;81.61;100224.16;108989;1258;73816;-65
2023/08/20 06:34:16;;;;;;;12.70;8.60;;;;;;;25.77;80.22;100226.23;108999;1258;57248;-65
2023/08/20 06:37:02;;;;;;;11.50;8.50;;;;;;;26.43;78.62;100228.72;109012;1258;60313;-66
2023/08/20 06:39:48;;;;;;;11.50;7.50;;;;;;;27.21;75.67;100225.29;108993;1258;72456;-65
2023/08/20 06:42:35;;;;;;;10.70;7.30;;;;;;;28.24;72.28;100227.59;108865;1258;68102;-64
2023/08/20 06:45:24;;;;;;;12.30;7.20;;;;;;;29.21;67.96;100223.57;108986;1258;71401;-65
2023/08/20 06:48:10;;;;;;;12.60;6.90;;;;;;;30.28;63.13;100223.42;108974;1258;58003;-72
2023/08/20 06:50:56;;;;;;;10.30;6.60;;;;;;;31.46;58.20;100218.05;108987;1258;59769;-70
2023/08/20 06:53:43;;;;;;;8.20;5.50;;;;;;;32.66;54.51;100216.10;109068;1258;71708;-71
2023/08/20 06:56:29;;;;;;;8.30;5.30;;;;;;;33.79;50.28;100214.77;109026;1258;68854;-70
2023/08/20 06:59:16;;;;;;;10.00;5.40;;;;;;;34.86;45.97;100215.90;109026;1258;72515;-72
2023/08/20 07:02:06;;;;;;;10.00;5.50;;;;;;;35.53;44.44;100207.83;109040;1258;57635;-70
2023/08/20 07:04:54;;;;;;;10.50;4.90;;;;;;;36.26;42.33;100204.02;109033;1258;58836;-70
2023/08/20 07:07:40;;;;;;;8.60;5.30;;;;;;;36.86;40.48;100197.08;108960;1258;73773;-73
2023/08/20 07:10:26;;;;;;;8.80;5.50;;;;;;;36.99;39.62;100193.23;109029;1258;67121;-71
2023/08/20 07:13:13;;;;;;;9.60;5.10;;;;;;;37.30;38.70;100188.59;108972;1258;72960;-72
2023/08/20 07:16:00;;;;;;;7.90;4.90;;;;;;;37.70;38.67;100191.31;109015;1258;57957;-71
2023/08/20 07:18:46;;;;;;;9.30;5.30;;;;;;;37.84;38.05;100191.26;108862;1261;59372;-70
2023/08/20 07:21:32;;;;;;;11.40;5.70;;;;;;;37.76;37.92;100193.65;108918;1261;72609;-73
2023/08/20 07:24:25;;;;;;;9.90;5.20;;;;;;;37.77;37.53;100193.35;108867;1261;68896;-72
2023/08/20 07:27:12;;;;;;;11.20;5.30;;;;;;;37.86;37.24;100185.89;108857;1261;73653;-71
2023/08/20 07:29:58;;;;;;;10.80;5.60;;;;;;;37.95;36.98;100189.15;108828;1261;57468;-69
2023/08/20 07:32:44;;;;;;;10.20;5.10;;;;;;;38.26;36.24;100196.19;108912;1261;60827;-70
2023/08/20 07:35:35;;;;;;;8.70;5.10;;;;;;;38.85;35.50;100196.45;108882;1261;71684;-70
2023/08/20 07:38:21;;;;;;;8.50;5.30;;;;;;;38.87;35.00;100188.09;108875;1262;67948;-73
2023/08/20 07:41:09;;;;;;;9.10;5.30;;;;;;;39.13;34.74;100191.38;108874;1262;73622;-70
2023/08/20 07:43:55;;;;;;;12.10;5.40;;;;;;;39.39;34.34;100196.46;108865;1262;58845;-70
2023/08/20 07:46:41;;;;;;;10.20;5.40;;;;;;;39.14;34.47;100198.71;108891;1261;60333;-69
2023/08/20 07:49:30;;;;;;;8.00;5.50;;;;;;;38.97;34.33;100195.19;108891;1260;73872;-70
2023/08/20 07:52:16;;;;;;;10.20;5.90;;;;;;;38.59;34.89;100197.46;108986;1258;67803;-70
2023/08/20 07:55:03;;;;;;;9.70;5.30;;;;;;;38.33;35.30;100194.94;109044;1258;74023;-72
2023/08/20 07:57:52;;;;;;;7.90;5.30;;;;;;;38.30;35.58;100192.80;109077;1257;59273;-69
2023/08/20 08:00:39;;;;;;;8.70;5.30;;;;;;;38.49;35.44;100199.23;109018;1259;60210;-74
2023/08/20 08:03:26;;;;;;;9.50;5.20;;;;;;;38.45;34.63;100194.86;109042;1258;71794;-72
2023/08/20 08:06:13;;;;;;;12.30;6.30;;;;;;;38.20;35.57;100194.41;109063;1258;66621;-70
2023/08/20 08:09:19;;;;;;;11.20;5.70;;;;;;;37.91;36.17;100196.05;109009;1258;71289;-70
2023/08/20 08:12:06;;;;;;;8.50;5.70;;;;;;;37.72;36.01;100193.29;109040;1258;57537;-69
2023/08/20 08:14:52;;;;;;;9.20;5.80;;;;;;;37.71;36.10;100193.80;109030;1258;61422;-68
2023/08/20 08:17:38;;;;;;;10.10;6.50;;;;;;;37.91;36.01;100190.27;109027;1258;71469;-69
2023/08/20 08:20:25;;;;;;;12.80;6.50;;;;;;;38.10;35.73;100190.61;109030;1258;67986;-70
2023/08/20 08:23:12;;;;;;;9.70;5.80;;;;;;;38.19;35.87;100188.80;109026;1258;72687;-71
2023/08/20 08:25:58;;;;;;;10.00;5.90;;;;;;;38.23;35.23;100186.59;109047;1258;57235;-71
2023/08/20 08:28:44;;;;;;;9.50;5.50;;;;;;;38.22;35.28;100185.48;109027;1258;59999;-69
2023/08/20 08:31:31;;;;;;;12.60;5.90;;;;;;;38.56;34.77;100181.61;109050;1258;74079;-68
2023/08/20 08:34:18;;;;;;;11.80;5.80;;;;;;;39.07;34.02;100179.92;108996;1258;67658;-70
2023/08/20 08:37:04;;;;;;;9.50;5.40;;;;;;;39.38;33.60;100177.48;109017;1258;73548;-68
2023/08/20 08:39:50;;;;;;;9.00;5.90;;;;;;;39.53;33.73;100175.05;109054;1258;58504;-70
2023/08/20 08:42:37;;;;;;;9.90;5.70;;;;;;;39.88;33.32;100183.18;109065;1258;59257;-70
2023/08/20 08:45:23;;;;;;;10.30;6.10;;;;;;;40.46;32.36;100186.20;108985;1259;73892;-69
2023/08/20 08:48:10;;;;;;;10.10;5.40;;;;;;;41.13;31.14;100189.60;109097;1257;68330;-71
2023/08/20 08:50:56;;;;;;;10.60;5.50;;;;;;;41.75;30.13;100190.55;109103;1257;73780;-70
2023/08/20 08:53:46;;;;;;;11.50;6.00;;;;;;;42.25;29.33;100190.39;109066;1257;57978;-69
2023/08/20 08:56:32;;;;;;;9.80;5.60;;;;;;;42.68;28.78;100194.57;109046;1257;60324;-72
2023/08/20 08:59:19;;;;;;;10.50;6.50;;;;;;;42.49;28.66;100188.98;109087;1257;74161;-69
2023/08/20 09:02:11;;;;;;;10.50;6.10;;;;;;;42.33;28.95;100188.69;109100;1257;66779;-70
2023/08/20 09:04:58;;;;;;;11.50;5.40;;;;;;;41.98;29.16;100193.94;109069;1257;71486;-70
2023/08/20 09:07:45;;;;;;;9.30;5.50;;;;;;;41.41;30.22;100191.38;109028;1257;57949;-69
2023/08/20 09:10:31;;;;;;;10.40;6.20;;;;;;;40.99;30.91;100193.56;108978;1258;60418;-72
2023/08/20 09:13:23;;;;;;;9.70;5.80;;;;;;;40.97;31.01;100196.66;109017;1258;72973;-70
2023/08/20 09:16:11;;;;;;;9.50;5.80;;;;;;;41.22;30.20;100197.66;108947;1258;68280;-70
2023/08/20 09:19:01;;;;;;;8.90;5.80;;;;;;;40.33;31.21;100197.94;108961;1259;72529;-71
2023/08/20 09:21:48;;;;;;;12.60;6.40;;;;;;;39.50;32.66;100198.83;108947;1259;57969;-72
2023/08/20 09:24:46;;;;;;;9.50;6.10;;;;;;;38.54;33.89;100201.26;109028;1258;58997;-71
2023/08/20 09:27:42;;;;;;;11.90;7.00;;;;;;;37.79;35.60;100199.64;109014;1258;73233;-73
2023/08/20 09:30:28;;;;;;;9.60;6.80;;;;;;;37.40;35.87;100199.91;109012;1258;68765;-68
2023/08/20 09:33:14;;;;;;;10.90;6.80;;;;;;;37.05;36.69;100204.10;109018;1258;72490;-70
2023/08/20 09:36:04;;;;;;;11.80;6.20;;;;;;;37.23;36.92;100206.13;109018;1258;58826;-71
2023/08/20 09:38:51;;;;;;;10.80;6.90;;;;;;;37.10;36.92;100202.94;109000;1258;60129;-69
2023/08/20 09:41:38;;;;;;;9.90;6.60;;;;;;;36.73;37.34;100202.29;109004;1258;73157;-69
2023/08/20 09:44:27;;;;;;;10.10;7.40;;;;;;;36.13;38.24;100206.98;109017;1258;67785;-70
2023/08/20 09:47:16;;;;;;;11.80;7.40;;;;;;;35.54;39.46;100206.88;109014;1258;71476;-70
2023/08/20 09:50:04;;;;;;;13.30;7.90;;;;;;;34.99;40.39;100211.21;108967;1258;57553;-68
2023/08/20 09:53:03;;;;;;;11.20;7.70;;;;;;;34.40;41.71;100210.20;109002;1257;61288;-73
2023/08/20 09:55:51;;;;;;;11.00;8.10;;;;;;;33.77;43.49;100210.87;109124;1257;73156;-71
2023/08/20 09:58:39;;;;;;;12.50;8.00;;;;;;;33.29;44.40;100214.09;109158;1257;68085;-71
2023/08/20 10:01:27;;;;;;;11.90;8.60;;;;;;;32.82;45.64;100217.47;109061;1258;72510;-70
2023/08/20 10:04:16;;;;;;;14.00;9.10;;;;;;;32.40;47.24;100218.39;109036;1259;58487;-69
2023/08/20 10:07:04;;;;;;;13.30;9.30;;;;;;;32.07;48.48;100216.34;109075;1257;60162;-70
2023/08/20 10:09:52;;;;;;;11.70;8.70;;;;;;;31.86;49.84;100217.26;109030;1257;72900;-70
2023/08/20 10:12:39;;;;;;;12.80;9.20;;;;;;;31.78;50.42;100214.30;109059;1257;68646;-70
2023/08/20 10:15:28;;;;;;;11.40;8.20;;;;;;;31.64;50.80;100217.23;109021;1260;72961;-67
2023/08/20 10:18:14;;;;;;;11.70;8.00;;;;;;;31.37;50.54;100220.45;108995;1257;57928;-67
2023/08/20 10:21:02;;;;;;;16.00;9.70;;;;;;;31.06;52.47;100215.67;109068;1257;60237;-65
2023/08/20 10:23:50;;;;;;;13.10;8.60;;;;;;;30.88;53.00;100214.12;109131;1257;74158;-68
2023/08/20 10:26:36;;;;;;;13.30;9.40;;;;;;;30.69;54.29;100211.45;109113;1258;68772;-67
2023/08/20 10:29:41;;;;;;;14.80;9.20;;;;;;;30.50;54.44;100213.48;109029;1257;72529;-64
2023/08/20 10:32:54;;;;;;;12.40;8.80;;;;;;;30.24;55.19;100219.64;109080;1257;59202;-66
2023/08/20 10:35:40;;;;;;;13.60;9.50;;;;;;;29.83;56.55;100222.99;109123;1258;60178;-63
2023/08/20 10:38:27;;;;;;;17.30;10.10;;;;;;;29.52;58.52;100221.59;109107;1261;73324;-64
2023/08/20 10:41:16;;;;;;;17.60;11.20;;;;;;;29.19;61.87;100224.73;109057;1258;67727;-66
2023/08/20 10:44:03;;;;;;;26.30;13.50;;;;;;;28.81;64.65;100220.37;109030;1259;73578;-66
2023/08/20 10:46:53;;;;;;;23.40;13.00;;;;;;;28.46;66.98;100227.30;109025;1258;57976;-65
2023/08/20 10:49:39;;;;;;;15.40;10.80;;;;;;;28.01;69.01;100224.71;108948;1261;60165;-63
2023/08/20 10:52:49;;;;;;;19.00;10.90;;;;;;;27.52;68.43;100202.03;109006;1258;72898;-66
2023/08/20 10:55:35;;;;;;;18.20;12.90;;;;;;;27.10;71.56;100205.70;109016;1258;68854;-65
2023/08/20 10:58:24;;;;;;;17.40;12.90;;;;;;;26.88;74.03;100221.45;108940;1258;73703;-66
2023/08/20 11:01:21;;;;;;;18.80;12.00;;;;;;;26.68;76.00;100220.90;108987;1258;59589;-64
2023/08/20 11:04:08;;;;;;;16.50;11.60;;;;;;;26.78;77.52;100214.50;109048;1258;61362;-67
2023/08/20 11:06:57;;;;;;;15.40;10.50;;;;;;;27.28;78.46;100208.11;109009;1260;73947;-64
2023/08/20 11:09:44;;;;;;;13.80;8.70;;;;;;;27.42;76.89;100205.70;109044;1257;67152;-64
2023/08/20 11:12:31;;;;;;;13.10;8.80;;;;;;;27.48;75.56;100202.89;109087;1257;72592;-66
2023/08/20 11:15:17;;;;;;;13.40;7.80;;;;;;;27.44;74.26;100198.15;109090;1257;58358;-68
2023/08/20 11:18:04;;;;;;;11.60;8.30;;;;;;;27.39;73.44;100197.17;109125;1257;60086;-66
2023/08/20 11:20:51;;;;;;;13.30;8.40;;;;;;;28.28;72.51;100192.94;109129;1257;74315;-67
2023/08/20 11:23:39;;;;;;;12.20;8.30;;;;;;;28.94;71.50;100190.94;109111;1257;67717;-67
2023/08/20 11:26:25;;;;;;;11.90;7.70;;;;;;;29.51;70.71;100199.57;109052;1257;72501;-65
2023/08/20 11:29:19;;;;;;;14.00;8.50;;;;;;;30.03;68.86;100207.34;109093;1258;57292;-64
2023/08/20 11:32:06;;;;;;;15.60;9.30;;;;;;;30.58;68.00;100201.88;109132;1257;61398;-67
2023/08/20 11:34:52;;;;;;;15.00;9.60;;;;;;;30.94;66.60;100198.61;109117;1257;72972;-64
2023/08/20 11:37:40;;;;;;;13.10;10.50;;;;;;;30.94;65.44;100199.55;109152;1258;67689;-66
2023/08/20 11:40:28;;;;;;;12.30;9.80;;;;;;;30.92;64.99;100207.88;109036;1257;72886;-64
2023/08/20 11:43:16;;;;;;;13.70;9.00;;;;;;;31.38;63.31;100207.16;109098;1257;58730;-66
2023/08/20 11:46:02;;;;;;;12.60;9.20;;;;;;;31.88;61.40;100207.60;109151;1257;60628;-65
2023/08/20 11:49:26;;;;;;;11.40;9.30;;;;;;;31.94;60.85;100217.25;109062;1257;74021;-64
2023/08/20 11:52:13;;;;;;;13.10;10.00;;;;;;;31.50;60.05;100217.56;108569;1265;67619;-64
2023/08/20 11:55:03;;;;;;;11.60;8.70;;;;;;;31.14;61.20;100222.44;108633;1265;72798;-64
2023/08/20 11:57:52;;;;;;;11.40;8.60;;;;;;;31.34;61.65;100224.92;108626;1265;57860;-65
2023/08/20 12:00:38;;;;;;;11.40;9.10;;;;;;;31.63;60.41;100225.12;108631;1265;60092;-64
2023/08/20 12:03:30;;;;;;;11.90;8.60;;;;;;;31.45;59.64;100228.70;108644;1265;71685;-65
2023/08/20 12:06:24;;;;;;;13.20;9.10;;;;;;;30.88;59.90;100235.66;108648;1265;69054;-67
2023/08/20 12:09:23;;;;;;;14.00;8.70;;;;;;;30.23;60.24;100241.69;108618;1265;71992;-64
2023/08/20 12:12:09;;;;;;;11.60;7.90;;;;;;;29.68;61.05;100239.36;108645;1265;57884;-64
2023/08/20 12:14:56;;;;;;;12.20;8.30;;;;;;;29.28;62.11;100234.09;108505;1265;61226;-65
2023/08/20 12:17:43;;;;;;;13.70;8.50;;;;;;;28.98;63.76;100223.14;108628;1265;72738;-65
2023/08/20 12:20:31;;;;;;;16.20;8.90;;;;;;;28.81;65.02;100228.36;108621;1265;67714;-65
2023/08/20 12:23:18;;;;;;;14.90;8.20;;;;;;;28.56;65.04;100229.41;108421;1265;73895;-64
2023/08/20 12:26:07;;;;;;;14.80;10.20;;;;;;;28.25;66.06;100232.77;108485;1265;57778;-67
2023/08/20 12:28:54;;;;;;;11.20;8.30;;;;;;;28.01;67.33;100236.91;108884;1257;60465;-65
2023/08/20 12:31:41;;;;;;;12.50;8.50;;;;;;;27.74;67.38;100241.72;109115;1257;72242;-65
2023/08/20 12:34:29;;;;;;;10.70;7.60;;;;;;;27.39;67.01;100230.77;109030;1257;69138;-65
2023/08/20 12:37:15;;;;;;;12.00;8.00;;;;;;;27.22;66.98;100239.52;109043;1258;72557;-64
2023/08/20 12:40:10;;;;;;;11.50;8.00;;;;;;;27.12;66.61;100244.34;109113;1257;57928;-65